Time;durP1;ratioP1;P1;durP2;ratioP2;P2;SDS_P1;SDS_P2;PMS_P1;PMS_P2;Temp;Humidity;BMP_temperature;BMP_pressure;BME280_temperature;BME280_humidity;BME280_pressure;Samples;Min_cycle;Max_cycle;Signal;HPM_P1;HPM_P2
2023/02/27 17:01:20;;;;;;;3.45;2.42;;;5.40;83.40;;;;;;5112791;27;20826;-64
2023/02/27 17:03:46;;;;;;;5.25;2.28;;;5.00;86.20;;;;;;5108640;28;20111;-65
2023/02/27 17:06:13;;;;;;;3.88;2.33;;;4.90;90.10;;;;;;5108234;28;20473;-64
2023/02/27 17:08:41;;;;;;;5.70;2.90;;;4.80;91.30;;;;;;5108213;28;20131;-65
2023/02/27 17:11:07;;;;;;;5.38;2.10;;;4.70;92.30;;;;;;5107791;28;20020;-65
2023/02/27 17:13:35;;;;;;;4.00;2.22;;;4.60;93.50;;;;;;5106614;28;20024;-65
2023/02/27 17:16:01;;;;;;;4.03;1.85;;;4.50;94.50;;;;;;5108697;28;20419;-65
2023/02/27 17:18:27;;;;;;;3.92;2.22;;;4.50;95.60;;;;;;5103135;28;20103;-65
2023/02/27 17:20:55;;;;;;;3.70;1.85;;;4.40;96.30;;;;;;5106763;28;20548;-65
2023/02/27 17:23:22;;;;;;;2.88;2.08;;;4.30;96.90;;;;;;5105917;28;20073;-65
2023/02/27 17:25:47;;;;;;;4.47;2.35;;;4.30;97.40;;;;;;5106662;28;20020;-65
2023/02/27 17:28:13;;;;;;;4.47;2.45;;;4.20;98.00;;;;;;5122309;28;20035;-66
2023/02/27 17:30:40;;;;;;;5.55;2.58;;;4.10;98.60;;;;;;5113737;27;20036;-65
2023/02/27 17:33:05;;;;;;;4.93;2.45;;;4.10;99.40;;;;;;5106199;28;20180;-65
2023/02/27 17:35:31;;;;;;;5.38;2.25;;;4.10;99.60;;;;;;5107357;28;20890;-66
2023/02/27 17:37:58;;;;;;;3.83;2.25;;;4.10;99.90;;;;;;5107316;28;20532;-66
2023/02/27 17:40:24;;;;;;;4.03;2.58;;;4.00;99.90;;;;;;5113824;28;20111;-67
2023/02/27 17:42:50;;;;;;;5.63;3.75;;;4.00;99.90;;;;;;5117552;27;20028;-66
2023/02/27 17:45:16;;;;;;;5.60;3.70;;;3.90;99.90;;;;;;5106516;28;20130;-66
2023/02/27 17:47:42;;;;;;;10.25;5.93;;;3.90;99.90;;;;;;5107515;28;20020;-67
2023/02/27 17:50:09;;;;;;;8.30;5.53;;;3.90;99.90;;;;;;5107437;28;20020;-66
2023/02/27 17:52:35;;;;;;;7.55;4.30;;;3.80;99.90;;;;;;5106322;28;20027;-66
2023/02/27 17:55:02;;;;;;;6.68;3.95;;;3.80;99.90;;;;;;5125753;28;20020;-66
2023/02/27 17:57:29;;;;;;;8.13;4.53;;;3.80;99.90;;;;;;5124171;28;20043;-66
2023/02/27 17:59:54;;;;;;;9.13;4.70;;;3.80;99.90;;;;;;5126767;28;20093;-66
2023/02/27 18:02:20;;;;;;;10.02;4.97;;;3.80;99.90;;;;;;5126252;28;20433;-65
2023/02/27 18:04:46;;;;;;;11.18;5.32;;;3.80;99.90;;;;;;5126544;28;20024;-65
2023/02/27 18:07:11;;;;;;;12.32;5.95;;;3.80;99.90;;;;;;5126114;27;20127;-65
2023/02/27 18:09:37;;;;;;;10.68;5.22;;;3.70;99.90;;;;;;5126610;28;20047;-66
2023/02/27 18:12:03;;;;;;;8.32;4.30;;;3.70;99.90;;;;;;5105459;27;20024;-66
2023/02/27 18:14:29;;;;;;;8.73;4.50;;;3.60;99.90;;;;;;5092346;28;20023;-65
2023/02/27 18:16:55;;;;;;;6.95;4.03;;;3.60;99.90;;;;;;5093416;28;20361;-65
2023/02/27 18:19:24;;;;;;;6.03;3.53;;;3.50;99.90;;;;;;5092238;28;20554;-65
2023/02/27 18:21:49;;;;;;;6.55;2.90;;;3.40;99.90;;;;;;5093019;28;20024;-65
2023/02/27 18:24:15;;;;;;;6.78;3.20;;;3.30;99.90;;;;;;5094161;28;20012;-65
2023/02/27 18:26:42;;;;;;;5.13;3.00;;;3.30;99.90;;;;;;5107534;28;20031;-66
2023/02/27 18:29:10;;;;;;;3.92;2.75;;;3.30;99.90;;;;;;5103477;28;20015;-66
2023/02/27 18:31:41;;;;;;;5.50;3.08;;;3.20;99.90;;;;;;5090875;28;20076;-65
2023/02/27 18:34:08;;;;;;;5.88;3.42;;;3.10;99.90;;;;;;5093757;28;20088;-66
2023/02/27 18:36:34;;;;;;;8.52;4.18;;;3.10;99.90;;;;;;5091309;28;20051;-67
2023/02/27 18:39:00;;;;;;;6.18;3.20;;;3.10;99.90;;;;;;5091868;28;20074;-68
2023/02/27 18:41:27;;;;;;;8.60;3.60;;;3.10;99.90;;;;;;5092029;28;20476;-67
2023/02/27 18:43:53;;;;;;;4.60;3.22;;;3.10;99.90;;;;;;5093478;28;20068;-67
2023/02/27 18:46:19;;;;;;;3.42;2.53;;;3.10;99.90;;;;;;5092638;28;20032;-64
2023/02/27 18:48:45;;;;;;;4.50;2.58;;;3.00;99.90;;;;;;5075966;28;20025;-64
2023/02/27 18:51:13;;;;;;;6.20;2.70;;;2.90;99.90;;;;;;5110213;28;20080;-64
2023/02/27 18:53:42;;;;;;;3.30;2.05;;;2.80;99.90;;;;;;5074341;28;20044;-63
2023/02/27 18:56:09;;;;;;;6.03;3.00;;;2.80;99.90;;;;;;5092325;28;20043;-66
2023/02/27 18:58:35;;;;;;;4.05;2.58;;;2.70;99.90;;;;;;5092396;28;20024;-66
2023/02/27 19:01:06;;;;;;;5.35;2.75;;;2.60;99.90;;;;;;5091226;28;20231;-66
2023/02/27 19:03:33;;;;;;;5.78;2.83;;;2.60;99.90;;;;;;5093014;28;20180;-66
2023/02/27 19:05:58;;;;;;;5.45;3.03;;;2.50;99.90;;;;;;5093231;28;20036;-66
2023/02/27 19:08:27;;;;;;;6.25;2.97;;;2.40;99.90;;;;;;5093260;28;20099;-66
2023/02/27 19:10:54;;;;;;;7.38;4.07;;;2.40;99.90;;;;;;5092292;28;20012;-66
2023/02/27 19:13:20;;;;;;;6.15;3.38;;;2.40;99.90;;;;;;5092333;28;20437;-66
2023/02/27 19:15:45;;;;;;;7.10;3.92;;;2.30;99.90;;;;;;5092801;28;20026;-66
2023/02/27 19:18:11;;;;;;;6.00;3.83;;;2.30;99.90;;;;;;5090900;28;20081;-67
2023/02/27 19:20:37;;;;;;;9.20;4.18;;;2.20;99.90;;;;;;5092635;28;20180;-67
2023/02/27 19:23:02;;;;;;;7.82;3.78;;;2.20;99.90;;;;;;5090366;28;20022;-66
2023/02/27 19:25:28;;;;;;;8.75;4.78;;;2.10;99.90;;;;;;5071130;28;20032;-66
2023/02/27 19:27:55;;;;;;;9.07;4.60;;;2.10;99.90;;;;;;5072005;28;20020;-66
2023/02/27 19:30:21;;;;;;;8.20;4.80;;;2.10;99.90;;;;;;5071723;28;20025;-66
2023/02/27 19:32:47;;;;;;;7.95;4.40;;;2.10;99.90;;;;;;5078692;28;20499;-66
2023/02/27 19:35:14;;;;;;;9.80;4.60;;;2.00;99.90;;;;;;5106525;28;20044;-66
2023/02/27 19:37:45;;;;;;;9.02;5.30;;;2.00;99.90;;;;;;5106693;28;20020;-66
2023/02/27 19:40:12;;;;;;;10.73;5.97;;;1.90;99.90;;;;;;5091805;28;20035;-67
2023/02/27 19:42:40;;;;;;;7.18;5.05;;;1.80;99.90;;;;;;5091742;28;20023;-66
2023/02/27 19:45:07;;;;;;;11.77;5.68;;;1.80;99.90;;;;;;5091693;28;20031;-67
2023/02/27 19:47:34;;;;;;;9.77;5.60;;;1.80;99.90;;;;;;5090976;28;20028;-67
2023/02/27 19:50:00;;;;;;;10.80;5.30;;;1.80;99.90;;;;;;5103362;28;20015;-67
2023/02/27 19:52:26;;;;;;;8.20;5.25;;;1.80;99.90;;;;;;5109953;28;20030;-66
2023/02/27 19:54:51;;;;;;;8.80;5.03;;;1.70;99.90;;;;;;5112275;28;20023;-67
